Time;durP1;ratioP1;P1;durP2;ratioP2;P2;SDS_P1;SDS_P2;PMS_P1;PMS_P2;Temp;Humidity;BMP_temperature;BMP_pressure;BME280_temperature;BME280_humidity;BME280_pressure;Samples;Min_cycle;Max_cycle;Signal;HPM_P1;HPM_P2
2021/12/03 00:01:33;;;;;;;2.20;2.00;;;14.40;29.80;;;;;;5139474;27;20203;-68
2021/12/03 00:04:02;;;;;;;2.30;2.10;;;14.40;29.80;;;;;;5139595;27;20261;-70
2021/12/03 00:06:34;;;;;;;2.13;2.03;;;14.30;29.70;;;;;;5139344;27;20582;-68
2021/12/03 00:09:01;;;;;;;2.10;2.00;;;14.40;29.80;;;;;;5139338;27;20202;-70
2021/12/03 00:11:28;;;;;;;2.20;2.10;;;14.30;29.70;;;;;;5139751;27;20210;-70
2021/12/03 00:13:55;;;;;;;2.10;1.90;;;14.30;29.70;;;;;;5139715;27;20198;-68
2021/12/03 00:16:22;;;;;;;2.20;2.00;;;14.30;29.70;;;;;;5139468;27;20207;-68
2021/12/03 00:18:50;;;;;;;2.20;2.00;;;14.30;29.70;;;;;;5139179;27;20209;-68
2021/12/03 00:21:19;;;;;;;2.25;2.05;;;14.30;29.80;;;;;;5138401;27;20209;-68
2021/12/03 00:23:46;;;;;;;2.00;1.90;;;14.30;29.80;;;;;;5138577;27;20628;-68
2021/12/03 00:26:13;;;;;;;1.98;1.80;;;14.30;29.80;;;;;;5139201;27;20610;-68
2021/12/03 00:28:41;;;;;;;2.00;1.90;;;14.30;29.70;;;;;;5138725;27;20200;-68
2021/12/03 00:31:09;;;;;;;2.08;1.98;;;14.30;29.70;;;;;;5139144;27;20202;-68
2021/12/03 00:33:36;;;;;;;2.28;2.08;;;14.30;29.80;;;;;;5139181;27;20578;-68
2021/12/03 00:36:10;;;;;;;1.92;1.83;;;14.30;29.80;;;;;;5138916;27;20202;-68
2021/12/03 00:38:51;;;;;;;1.90;1.80;;;14.30;29.70;;;;;;5139046;27;20203;-69
2021/12/03 00:41:25;;;;;;;2.15;1.95;;;14.20;29.70;;;;;;5138600;27;20584;-70
2021/12/03 00:43:58;;;;;;;1.98;1.88;;;14.20;29.70;;;;;;5139069;27;20695;-71
2021/12/03 00:46:26;;;;;;;1.80;1.70;;;14.20;29.80;;;;;;5138751;27;20203;-70
2021/12/03 00:48:54;;;;;;;1.90;1.80;;;14.20;29.80;;;;;;5137897;27;20652;-71
2021/12/03 00:51:24;;;;;;;1.92;1.75;;;14.20;29.80;;;;;;5137474;27;20198;-71
2021/12/03 00:53:54;;;;;;;1.83;1.73;;;14.20;29.80;;;;;;5138904;27;20541;-70
2021/12/03 00:56:21;;;;;;;1.80;1.70;;;14.20;29.70;;;;;;5138750;27;20213;-71
2021/12/03 00:58:49;;;;;;;1.90;1.80;;;14.20;29.70;;;;;;5123311;27;20227;-71
2021/12/03 01:01:17;;;;;;;1.80;1.70;;;14.20;29.70;;;;;;5117815;28;20199;-71
2021/12/03 01:03:45;;;;;;;1.63;1.52;;;14.20;29.70;;;;;;5118343;28;20219;-70
2021/12/03 01:06:12;;;;;;;1.70;1.60;;;14.20;29.70;;;;;;5117989;28;20210;-71
2021/12/03 01:08:39;;;;;;;1.80;1.70;;;14.20;29.70;;;;;;5117643;28;20211;-70
2021/12/03 01:11:10;;;;;;;1.80;1.70;;;14.10;29.60;;;;;;5118012;28;20230;-70
2021/12/03 01:13:39;;;;;;;1.80;1.70;;;14.20;29.70;;;;;;5117177;28;20206;-70
2021/12/03 01:16:09;;;;;;;1.70;1.58;;;14.10;29.70;;;;;;5117594;28;20618;-70
2021/12/03 01:18:37;;;;;;;1.60;1.50;;;14.10;29.70;;;;;;5118249;28;20215;-71
2021/12/03 01:21:05;;;;;;;1.67;1.55;;;14.10;29.70;;;;;;5118341;28;20226;-70
2021/12/03 01:23:33;;;;;;;1.73;1.50;;;14.10;29.70;;;;;;5118336;28;20277;-70
2021/12/03 01:26:00;;;;;;;1.73;1.63;;;14.10;29.70;;;;;;5117768;28;20582;-71
2021/12/03 01:28:29;;;;;;;1.60;1.50;;;14.10;29.70;;;;;;5117503;28;20226;-71
2021/12/03 01:30:56;;;;;;;1.50;1.40;;;14.10;29.70;;;;;;5117548;28;20203;-71
2021/12/03 01:33:23;;;;;;;1.52;1.42;;;14.10;29.70;;;;;;5117875;28;20203;-70
2021/12/03 01:35:52;;;;;;;1.40;1.30;;;14.10;29.70;;;;;;5117351;28;20202;-70
2021/12/03 01:38:20;;;;;;;1.48;1.38;;;14.10;29.70;;;;;;5117703;28;20209;-70
2021/12/03 01:40:48;;;;;;;1.48;1.33;;;14.00;29.70;;;;;;5120283;28;20207;-70
2021/12/03 01:43:20;;;;;;;1.50;1.40;;;14.00;29.70;;;;;;5122171;28;20484;-70
2021/12/03 01:45:51;;;;;;;1.45;1.35;;;14.00;29.70;;;;;;5122565;28;20213;-70
2021/12/03 01:48:18;;;;;;;1.73;1.33;;;14.00;29.70;;;;;;5122095;28;20203;-70
2021/12/03 01:50:46;;;;;;;1.50;1.40;;;14.00;29.70;;;;;;5121229;28;20214;-70
2021/12/03 01:53:18;;;;;;;1.23;1.13;;;14.00;29.70;;;;;;5122197;28;20203;-70
2021/12/03 01:55:47;;;;;;;2.92;1.55;;;14.00;29.70;;;;;;5121881;28;20638;-70
2021/12/03 01:58:15;;;;;;;1.40;1.30;;;14.00;29.70;;;;;;5121731;28;20231;-70
2021/12/03 02:00:47;;;;;;;1.48;1.38;;;13.90;29.60;;;;;;5121769;28;20203;-70
2021/12/03 02:03:16;;;;;;;1.52;1.42;;;13.90;29.60;;;;;;5121590;28;20207;-70
2021/12/03 02:05:44;;;;;;;1.20;1.10;;;13.90;29.60;;;;;;5121474;28;20206;-70
2021/12/03 02:08:12;;;;;;;1.05;1.00;;;13.90;29.70;;;;;;5121521;28;20214;-70
2021/12/03 02:10:41;;;;;;;1.30;1.20;;;13.90;29.70;;;;;;5120569;28;20204;-70
2021/12/03 02:13:10;;;;;;;1.40;1.30;;;13.90;29.70;;;;;;5121407;28;20522;-70
2021/12/03 02:15:38;;;;;;;1.80;1.02;;;13.90;29.70;;;;;;5121340;28;20268;-70
2021/12/03 02:18:07;;;;;;;1.38;1.10;;;13.90;29.70;;;;;;5121484;28;20211;-70
2021/12/03 02:20:36;;;;;;;1.15;1.00;;;13.90;29.70;;;;;;5121488;28;20214;-70
2021/12/03 02:23:07;;;;;;;1.70;1.10;;;13.90;29.70;;;;;;5121491;28;20211;-70
2021/12/03 02:25:34;;;;;;;1.30;1.20;;;13.90;29.80;;;;;;5120787;28;20289;-70
2021/12/03 02:28:01;;;;;;;1.33;1.23;;;13.90;29.70;;;;;;5120979;28;20215;-70
2021/12/03 02:30:28;;;;;;;0.90;0.90;;;13.90;29.70;;;;;;5121366;28;20203;-70
2021/12/03 02:32:56;;;;;;;0.98;0.98;;;13.80;29.60;;;;;;5120627;28;20214;-70
2021/12/03 02:35:25;;;;;;;1.00;0.90;;;13.80;29.60;;;;;;5120472;28;20206;-70
2021/12/03 02:37:53;;;;;;;1.45;1.20;;;13.80;29.60;;;;;;5121748;28;20468;-70
2021/12/03 02:40:22;;;;;;;1.17;1.10;;;13.80;29.70;;;;;;5120561;28;20195;-70
2021/12/03 02:42:50;;;;;;;1.25;1.10;;;13.80;29.70;;;;;;5120967;28;20211;-70
2021/12/03 02:45:18;;;;;;;1.33;1.00;;;13.80;29.70;;;;;;5120227;28;20222;-70
2021/12/03 02:47:45;;;;;;;0.90;0.90;;;13.80;29.70;;;;;;5120806;28;20214;-70
2021/12/03 02:50:14;;;;;;;1.50;1.00;;;13.80;29.70;;;;;;5120504;28;20203;-70
2021/12/03 02:52:42;;;;;;;1.00;0.90;;;13.80;29.70;;;;;;5120656;28;20582;-70
2021/12/03 02:55:10;;;;;;;1.00;1.00;;;13.80;29.70;;;;;;5121129;28;20226;-70
2021/12/03 02:57:38;;;;;;;0.80;0.80;;;13.80;29.70;;;;;;5125476;27;20249;-70
2021/12/03 03:00:09;;;;;;;0.95;0.90;;;13.70;29.60;;;;;;5141235;27;20214;-70
2021/12/03 03:02:37;;;;;;;1.60;0.90;;;13.80;29.70;;;;;;5139988;27;20198;-70
2021/12/03 03:05:06;;;;;;;1.00;0.88;;;13.70;29.70;;;;;;5141560;27;20292;-70
2021/12/03 03:07:33;;;;;;;1.00;0.93;;;13.70;29.60;;;;;;5141076;27;20245;-70
2021/12/03 03:10:01;;;;;;;1.00;0.90;;;13.70;29.70;;;;;;5141200;27;20202;-70
2021/12/03 03:12:28;;;;;;;0.98;0.95;;;13.70;29.70;;;;;;5140817;27;20304;-70
2021/12/03 03:14:59;;;;;;;0.80;0.80;;;13.70;29.70;;;;;;5140576;27;20498;-70
2021/12/03 03:17:29;;;;;;;0.95;0.85;;;13.70;29.60;;;;;;5140498;27;20207;-70
2021/12/03 03:19:57;;;;;;;1.05;0.93;;;13.70;29.60;;;;;;5140501;27;20202;-70
2021/12/03 03:22:26;;;;;;;0.98;0.88;;;13.70;29.60;;;;;;5140278;27;20202;-70
2021/12/03 03:24:54;;;;;;;0.88;0.88;;;13.70;29.70;;;;;;5139324;27;20226;-70
2021/12/03 03:27:22;;;;;;;0.80;0.80;;;13.70;29.70;;;;;;5139221;27;20207;-70
2021/12/03 03:29:51;;;;;;;0.82;0.82;;;13.70;29.70;;;;;;5138541;27;20209;-70
2021/12/03 03:32:20;;;;;;;0.82;0.80;;;13.60;29.60;;;;;;5139908;27;20210;-70
2021/12/03 03:34:47;;;;;;;1.13;0.90;;;13.60;29.60;;;;;;5140713;27;20484;-70
2021/12/03 03:37:15;;;;;;;0.90;0.70;;;13.60;29.70;;;;;;5140560;27;20631;-70
2021/12/03 03:39:44;;;;;;;1.20;0.80;;;13.60;29.70;;;;;;5140397;27;20202;-70
2021/12/03 03:42:11;;;;;;;1.00;0.90;;;13.60;30.30;;;;;;5140264;27;20586;-70
2021/12/03 03:44:39;;;;;;;1.15;0.85;;;13.60;29.60;;;;;;5139683;27;20253;-70
2021/12/03 03:47:07;;;;;;;0.70;0.70;;;13.60;29.60;;;;;;5140401;27;20220;-70
2021/12/03 03:49:36;;;;;;;1.10;1.00;;;13.60;29.70;;;;;;5140393;27;20213;-67
2021/12/03 03:52:05;;;;;;;1.08;0.90;;;13.60;29.70;;;;;;5140626;27;20535;-67
2021/12/03 03:54:33;;;;;;;1.58;0.82;;;13.60;29.70;;;;;;5140426;27;20198;-67
2021/12/03 03:57:01;;;;;;;0.80;0.80;;;13.60;29.70;;;;;;5139385;27;20202;-67
2021/12/03 03:59:28;;;;;;;1.20;0.80;;;13.50;29.60;;;;;;5119545;28;20210;-67
2021/12/03 04:01:55;;;;;;;0.80;0.68;;;13.50;29.60;;;;;;5119490;28;20332;-68
2021/12/03 04:04:22;;;;;;;0.60;0.60;;;13.50;29.60;;;;;;5118714;28;20240;-69
2021/12/03 04:06:51;;;;;;;0.80;0.80;;;13.50;29.60;;;;;;5119470;28;20490;-69
2021/12/03 04:09:19;;;;;;;0.70;0.70;;;13.50;29.60;;;;;;5118929;28;20541;-70
2021/12/03 04:11:46;;;;;;;0.90;0.90;;;13.50;29.60;;;;;;5118875;28;20503;-70
2021/12/03 04:14:14;;;;;;;0.82;0.70;;;13.50;29.60;;;;;;5118280;28;20199;-70
2021/12/03 04:16:41;;;;;;;0.90;0.70;;;13.50;29.60;;;;;;5118810;28;20210;-70
2021/12/03 04:19:08;;;;;;;0.70;0.68;;;13.50;29.60;;;;;;5119081;28;20609;-70
2021/12/03 04:21:35;;;;;;;0.90;0.80;;;13.40;29.50;;;;;;5119194;28;20216;-70
2021/12/03 04:24:04;;;;;;;0.80;0.80;;;13.40;29.50;;;;;;5118552;28;20203;-70
2021/12/03 04:26:32;;;;;;;0.70;0.70;;;13.40;29.60;;;;;;5119151;28;20478;-69
2021/12/03 04:28:59;;;;;;;0.70;0.70;;;13.40;30.10;;;;;;5118454;28;20210;-70
2021/12/03 04:31:26;;;;;;;0.73;0.73;;;13.40;29.60;;;;;;5118284;28;20207;-70
2021/12/03 04:33:53;;;;;;;0.80;0.80;;;13.40;29.60;;;;;;5118175;28;20199;-70
2021/12/03 04:36:20;;;;;;;0.57;0.57;;;13.40;29.60;;;;;;5118451;28;20205;-70
2021/12/03 04:38:48;;;;;;;1.27;0.70;;;13.40;29.60;;;;;;5118485;28;20217;-70
2021/12/03 04:41:16;;;;;;;0.88;0.80;;;13.40;29.60;;;;;;5118077;28;20211;-70
2021/12/03 04:43:43;;;;;;;0.85;0.70;;;13.40;29.60;;;;;;5118322;28;20218;-70
2021/12/03 04:46:11;;;;;;;1.02;0.90;;;13.40;29.60;;;;;;5117997;28;20238;-70
2021/12/03 04:48:38;;;;;;;0.57;0.57;;;13.30;29.50;;;;;;5118248;28;20203;-70
2021/12/03 04:51:05;;;;;;;1.23;0.70;;;13.30;29.50;;;;;;5117495;28;20218;-70
2021/12/03 04:53:33;;;;;;;0.75;0.75;;;13.30;29.50;;;;;;5117919;28;20230;-70
2021/12/03 04:56:00;;;;;;;1.00;0.80;;;13.30;29.50;;;;;;5116599;28;20195;-70
2021/12/03 04:58:28;;;;;;;0.88;0.68;;;13.30;29.50;;;;;;5129184;27;20578;-70
2021/12/03 05:00:58;;;;;;;0.80;0.80;;;13.30;29.60;;;;;;5138018;27;20202;-70
2021/12/03 05:03:26;;;;;;;0.70;0.70;;;13.30;29.60;;;;;;5137957;27;20198;-70
2021/12/03 05:05:55;;;;;;;0.60;0.60;;;13.30;29.60;;;;;;5137648;27;20283;-70
2021/12/03 05:08:24;;;;;;;0.70;0.70;;;13.30;29.60;;;;;;5138165;27;20206;-70
2021/12/03 05:10:51;;;;;;;1.63;0.75;;;13.30;29.60;;;;;;5137700;27;20202;-70
2021/12/03 05:13:20;;;;;;;0.93;0.82;;;13.20;29.60;;;;;;5137557;27;20714;-70
2021/12/03 05:15:49;;;;;;;1.90;0.95;;;13.20;29.60;;;;;;5136865;27;20263;-69
2021/12/03 05:18:18;;;;;;;0.70;0.70;;;13.30;29.70;;;;;;5137112;27;20209;-70
2021/12/03 05:20:48;;;;;;;0.63;0.63;;;13.20;29.60;;;;;;5137286;27;20217;-70
2021/12/03 05:23:16;;;;;;;0.75;0.70;;;13.20;29.60;;;;;;5120633;27;20218;-70
2021/12/03 05:25:43;;;;;;;0.70;0.70;;;13.20;29.60;;;;;;5117258;28;20230;-70
2021/12/03 05:28:11;;;;;;;0.93;0.90;;;13.20;29.60;;;;;;5116782;28;20202;-70
2021/12/03 05:30:39;;;;;;;0.95;0.80;;;13.20;29.60;;;;;;5117234;28;20597;-70
2021/12/03 05:33:07;;;;;;;0.70;0.60;;;13.20;29.60;;;;;;5116726;28;20202;-70
2021/12/03 05:35:36;;;;;;;0.80;0.80;;;13.20;29.60;;;;;;5116576;28;20579;-67
2021/12/03 05:38:04;;;;;;;1.55;0.80;;;13.20;29.60;;;;;;5115950;28;20593;-67
2021/12/03 05:40:31;;;;;;;0.80;0.80;;;13.10;29.50;;;;;;5116231;28;20206;-67
2021/12/03 05:42:58;;;;;;;0.80;0.80;;;13.20;29.60;;;;;;5116560;28;20209;-68
2021/12/03 05:45:28;;;;;;;0.70;0.70;;;13.10;29.60;;;;;;5115627;28;20674;-68
2021/12/03 05:47:56;;;;;;;1.00;0.80;;;13.10;29.60;;;;;;5115382;28;20203;-68
2021/12/03 05:50:24;;;;;;;0.70;0.68;;;13.10;29.60;;;;;;5130370;28;20199;-68
2021/12/03 05:52:52;;;;;;;0.98;0.75;;;13.10;29.60;;;;;;5135763;28;20608;-67
2021/12/03 05:55:21;;;;;;;1.00;0.90;;;13.10;29.60;;;;;;5136616;28;20332;-67
2021/12/03 05:57:48;;;;;;;0.65;0.65;;;13.10;29.60;;;;;;5135572;27;20244;-68
2021/12/03 06:00:19;;;;;;;1.05;0.70;;;13.10;29.60;;;;;;5136601;28;20547;-67
2021/12/03 06:02:47;;;;;;;0.73;0.73;;;13.10;29.60;;;;;;5135807;28;20214;-68
2021/12/03 06:05:14;;;;;;;0.90;0.90;;;13.10;29.60;;;;;;5135653;28;20218;-67
2021/12/03 06:07:43;;;;;;;0.88;0.75;;;13.10;29.60;;;;;;5135664;28;20206;-67
2021/12/03 06:10:10;;;;;;;0.77;0.77;;;13.10;29.60;;;;;;5135603;28;20214;-67
2021/12/03 06:12:37;;;;;;;0.88;0.80;;;13.10;29.60;;;;;;5135033;28;20738;-67
2021/12/03 06:15:06;;;;;;;0.80;0.70;;;13.00;29.60;;;;;;5136207;28;20206;-67
2021/12/03 06:17:33;;;;;;;1.05;0.65;;;13.00;29.50;;;;;;5136224;28;20549;-67
2021/12/03 06:20:01;;;;;;;1.20;0.75;;;13.00;29.60;;;;;;5135561;28;20210;-67
2021/12/03 06:22:28;;;;;;;0.82;0.70;;;13.00;29.60;;;;;;5134939;28;20202;-67
2021/12/03 06:24:57;;;;;;;0.93;0.70;;;13.00;29.60;;;;;;5136083;28;20234;-67
2021/12/03 06:27:29;;;;;;;0.77;0.77;;;13.00;29.60;;;;;;5138911;27;20284;-68
2021/12/03 06:29:59;;;;;;;0.60;0.60;;;13.00;29.60;;;;;;5138729;27;20522;-71
2021/12/03 06:32:28;;;;;;;0.88;0.88;;;13.00;29.60;;;;;;5139752;27;20238;-68
2021/12/03 06:34:55;;;;;;;0.93;0.77;;;13.00;29.60;;;;;;5140473;27;20246;-68
2021/12/03 06:37:22;;;;;;;0.60;0.60;;;12.90;29.60;;;;;;5140000;27;20209;-68
2021/12/03 06:39:50;;;;;;;1.27;0.80;;;13.00;29.70;;;;;;5135992;27;20195;-68
2021/12/03 06:42:18;;;;;;;0.85;0.85;;;12.90;29.60;;;;;;5119035;28;20209;-68
2021/12/03 06:44:45;;;;;;;0.85;0.85;;;12.90;29.60;;;;;;5119667;28;20210;-68
2021/12/03 06:47:12;;;;;;;0.88;0.80;;;12.90;29.50;;;;;;5118933;28;20202;-68
2021/12/03 06:49:39;;;;;;;0.70;0.70;;;12.90;29.50;;;;;;5118775;28;20210;-68
2021/12/03 06:52:11;;;;;;;0.80;0.80;;;12.90;29.60;;;;;;5119717;28;20211;-68
2021/12/03 06:54:38;;;;;;;0.73;0.73;;;12.90;29.60;;;;;;5119193;28;20210;-68
2021/12/03 06:57:08;;;;;;;0.77;0.73;;;12.90;29.60;;;;;;5118939;28;20199;-68
2021/12/03 06:59:37;;;;;;;0.80;0.80;;;12.90;29.60;;;;;;5118964;28;20198;-68
2021/12/03 07:02:05;;;;;;;0.75;0.75;;;12.90;29.60;;;;;;5119039;28;20203;-68
2021/12/03 07:04:32;;;;;;;0.80;0.80;;;12.90;29.60;;;;;;5118651;28;20206;-68
2021/12/03 07:06:59;;;;;;;0.70;0.70;;;12.80;29.50;;;;;;5118673;28;20223;-68
2021/12/03 07:09:27;;;;;;;0.90;0.90;;;12.90;29.60;;;;;;5118347;28;20210;-68
2021/12/03 07:11:54;;;;;;;0.88;0.88;;;12.80;29.60;;;;;;5118808;28;20492;-68
2021/12/03 07:14:21;;;;;;;0.73;0.70;;;12.80;29.60;;;;;;5119383;28;20203;-68
2021/12/03 07:16:50;;;;;;;0.65;0.65;;;12.80;29.60;;;;;;5118486;28;20207;-68
2021/12/03 07:19:17;;;;;;;1.00;0.88;;;12.80;29.60;;;;;;5117685;28;20613;-68
2021/12/03 07:21:44;;;;;;;0.85;0.85;;;12.80;29.50;;;;;;5117505;28;20218;-68
2021/12/03 07:24:11;;;;;;;0.80;0.80;;;12.80;29.50;;;;;;5118526;28;20230;-68
2021/12/03 07:26:38;;;;;;;1.42;0.80;;;12.80;29.60;;;;;;5118311;28;20238;-68
2021/12/03 07:29:05;;;;;;;1.42;1.00;;;12.80;29.60;;;;;;5118833;28;20259;-68
2021/12/03 07:31:32;;;;;;;0.80;0.80;;;12.80;29.60;;;;;;5117924;28;20203;-68
2021/12/03 07:34:01;;;;;;;0.80;0.80;;;12.80;29.60;;;;;;5117730;28;20207;-68
2021/12/03 07:36:28;;;;;;;0.85;0.82;;;12.80;29.70;;;;;;5116755;28;20210;-68
2021/12/03 07:38:55;;;;;;;0.80;0.80;;;12.80;29.60;;;;;;5117192;28;20213;-68
2021/12/03 07:41:23;;;;;;;1.00;0.90;;;12.70;29.60;;;;;;5117687;28;20478;-68
2021/12/03 07:43:50;;;;;;;1.00;0.90;;;12.70;29.50;;;;;;5117786;28;20203;-68
2021/12/03 07:46:17;;;;;;;1.00;0.90;;;12.70;29.60;;;;;;5117245;28;20227;-67
2021/12/03 07:48:46;;;;;;;0.93;0.90;;;12.70;29.50;;;;;;5116961;28;20207;-68
2021/12/03 07:51:16;;;;;;;0.93;0.90;;;12.70;29.60;;;;;;5117294;28;20674;-68
2021/12/03 07:53:43;;;;;;;1.10;1.00;;;12.70;29.60;;;;;;5117060;28;20202;-68
2021/12/03 07:56:10;;;;;;;1.10;1.00;;;12.70;29.60;;;;;;5118451;28;20207;-68
2021/12/03 07:58:37;;;;;;;1.00;1.00;;;12.70;29.60;;;;;;5131548;27;20234;-68
2021/12/03 08:01:05;;;;;;;0.90;0.90;;;12.70;29.60;;;;;;5137895;27;20491;-68
2021/12/03 08:03:32;;;;;;;1.20;1.10;;;12.70;29.60;;;;;;5120330;27;20498;-68
2021/12/03 08:06:05;;;;;;;2.30;0.90;;;12.70;29.60;;;;;;5117333;28;20230;-67
2021/12/03 08:08:36;;;;;;;1.20;1.10;;;12.70;29.60;;;;;;5117456;28;20232;-68
2021/12/03 08:11:04;;;;;;;0.82;0.82;;;12.70;29.60;;;;;;5116776;28;20194;-68
2021/12/03 08:13:31;;;;;;;1.10;1.00;;;12.60;29.60;;;;;;5117256;28;20202;-68
2021/12/03 08:16:01;;;;;;;1.30;1.20;;;12.70;29.60;;;;;;5117157;28;20242;-68
2021/12/03 08:18:29;;;;;;;1.20;1.10;;;12.60;29.60;;;;;;5117185;28;20610;-67
2021/12/03 08:20:56;;;;;;;1.17;1.08;;;12.70;29.60;;;;;;5115882;28;20203;-67
2021/12/03 08:23:23;;;;;;;1.08;0.98;;;12.70;29.70;;;;;;5115989;28;20279;-67
2021/12/03 08:25:52;;;;;;;0.90;0.90;;;12.70;29.70;;;;;;5116705;28;20329;-67
2021/12/03 08:28:19;;;;;;;1.30;1.20;;;12.70;29.70;;;;;;5116538;28;20199;-67
2021/12/03 08:30:46;;;;;;;1.27;1.17;;;12.60;29.60;;;;;;5132112;27;20213;-67
2021/12/03 08:33:13;;;;;;;1.10;1.00;;;12.60;29.60;;;;;;5137165;27;20209;-67
2021/12/03 08:35:40;;;;;;;0.90;0.90;;;12.60;29.60;;;;;;5136404;27;20213;-67
2021/12/03 08:38:08;;;;;;;1.10;1.00;;;12.60;29.70;;;;;;5136834;27;20198;-67
2021/12/03 08:40:35;;;;;;;1.00;1.00;;;12.60;29.60;;;;;;5137092;27;20202;-67
2021/12/03 08:43:04;;;;;;;1.30;1.20;;;12.60;29.60;;;;;;5136838;27;20202;-67
2021/12/03 08:45:31;;;;;;;1.27;1.17;;;12.60;29.60;;;;;;5136618;27;20569;-67
2021/12/03 08:48:00;;;;;;;1.33;1.00;;;12.60;29.60;;;;;;5137028;27;20210;-67
2021/12/03 08:50:30;;;;;;;1.20;1.10;;;12.60;29.60;;;;;;5136685;27;20210;-67
2021/12/03 08:53:15;;;;;;;0.95;0.85;;;12.60;29.60;;;;;;5136478;27;20308;-67
2021/12/03 08:55:43;;;;;;;1.02;1.00;;;12.60;29.70;;;;;;5137348;27;20202;-67
2021/12/03 08:58:13;;;;;;;0.93;0.90;;;12.60;29.70;;;;;;5118868;27;20226;-68
2021/12/03 09:00:41;;;;;;;1.42;0.90;;;12.60;29.70;;;;;;5116307;28;20372;-67
2021/12/03 09:03:08;;;;;;;3.05;1.10;;;12.60;29.70;;;;;;5115945;28;20499;-68
2021/12/03 09:05:37;;;;;;;1.92;1.20;;;12.70;29.90;;;;;;5115417;28;20212;-67
2021/12/03 09:08:05;;;;;;;1.45;0.98;;;12.70;29.80;;;;;;5115673;28;20203;-67
2021/12/03 09:10:33;;;;;;;1.30;1.20;;;12.60;29.70;;;;;;5116324;28;20218;-67
2021/12/03 09:13:00;;;;;;;1.83;1.13;;;12.60;29.70;;;;;;5116201;28;20673;-67
2021/12/03 09:15:31;;;;;;;1.30;1.20;;;12.60;29.70;;;;;;5115192;28;20248;-67
2021/12/03 09:20:59;;;;;;;2.08;1.10;;;12.60;29.60;;;;;;5052439;28;20204;-67
2021/12/03 09:23:34;;;;;;;1.30;1.20;;;12.60;29.60;;;;;;5102195;28;20601;-67
2021/12/03 09:26:09;;;;;;;1.25;1.10;;;12.60;29.70;;;;;;5095430;28;20223;-67
2021/12/03 09:28:38;;;;;;;1.75;1.10;;;12.60;29.80;;;;;;5094789;28;20206;-68
2021/12/03 09:31:07;;;;;;;10.27;1.70;;;12.60;29.80;;;;;;5095189;28;20203;-67
2021/12/03 09:33:36;;;;;;;3.00;1.27;;;12.70;29.80;;;;;;5095107;28;20498;-66
2021/12/03 09:36:08;;;;;;;10.57;9.23;;;12.70;29.90;;;;;;5095264;28;20199;-66
2021/12/03 09:38:39;;;;;;;40.67;37.13;;;12.60;29.90;;;;;;5095255;28;20690;-66
2021/12/03 09:41:09;;;;;;;29.05;26.50;;;12.70;30.10;;;;;;5094377;28;20286;-66
2021/12/03 09:43:41;;;;;;;141.73;129.02;;;12.70;30.30;;;;;;5092924;28;20204;-66
2021/12/03 09:46:15;;;;;;;182.88;166.85;;;12.60;30.60;;;;;;5093473;28;20483;-66
2021/12/03 09:51:44;;;;;;;116.57;106.47;;;12.70;31.60;;;;;;5068139;28;20195;-66
2021/12/03 09:54:29;;;;;;;106.57;97.13;;;12.80;31.70;;;;;;5099063;28;20202;-66
2021/12/03 09:57:02;;;;;;;98.70;90.18;;;12.80;31.70;;;;;;5135473;28;20199;-66
2021/12/03 10:02:30;;;;;;;80.13;73.00;;;12.90;31.80;;;;;;5131580;27;20193;-66
2021/12/03 10:05:24;;;;;;;73.15;66.13;;;12.90;31.80;;;;;;5139925;27;20643;-66
2021/12/03 10:13:31;;;;;;;59.33;54.15;;;13.00;32.10;;;;;;5139121;27;20205;-66
2021/12/03 10:16:06;;;;;;;55.17;50.42;;;13.00;31.90;;;;;;5140222;27;20198;-66
2021/12/03 10:18:46;;;;;;;50.58;46.38;;;13.10;31.90;;;;;;5140194;27;20206;-66
2021/12/03 10:21:31;;;;;;;48.58;44.38;;;13.10;31.90;;;;;;5139924;27;20198;-66
2021/12/03 10:29:39;;;;;;;39.65;36.25;;;13.10;31.90;;;;;;5139087;27;20299;-66
2021/12/03 10:37:59;;;;;;;33.35;30.50;;;13.20;32.00;;;;;;5106733;27;20611;-67
2021/12/03 10:43:41;;;;;;;27.88;25.48;;;13.30;32.10;;;;;;5118306;27;20197;-66
2021/12/03 10:49:06;;;;;;;25.17;23.08;;;13.30;32.10;;;;;;5132473;27;21291;-66
2021/12/03 10:51:44;;;;;;;23.77;21.55;;;13.30;32.10;;;;;;5138504;27;20216;-66
2021/12/03 10:54:20;;;;;;;21.33;19.52;;;13.40;32.20;;;;;;5121954;27;20222;-66
2021/12/03 12:41:39;;;;;;;3.80;3.42;;;13.60;30.50;;;;;;5109884;28;20696;-67
2021/12/03 13:21:34;;;;;;;8.88;7.60;;;13.60;30.20;;;;;;5117415;28;20273;-67
2021/12/03 14:45:09;;;;;;;2.30;2.10;;;14.40;31.20;;;;;;5115336;28;20193;-67
2021/12/03 14:50:49;;;;;;;2.20;2.00;;;14.40;31.10;;;;;;5110763;28;20194;-67
2021/12/03 14:56:09;;;;;;;1.70;1.60;;;14.40;30.80;;;;;;5099767;28;20801;-67
2021/12/03 14:58:47;;;;;;;1.70;1.60;;;14.40;30.80;;;;;;5115752;28;20206;-67
2021/12/03 15:01:20;;;;;;;2.30;1.80;;;14.40;30.70;;;;;;5114891;28;20321;-67
2021/12/03 15:06:45;;;;;;;1.80;1.70;;;14.40;30.70;;;;;;5132516;27;20558;-67
2021/12/03 15:09:17;;;;;;;1.70;1.60;;;14.40;30.50;;;;;;5133644;27;20194;-67
2021/12/03 15:12:17;;;;;;;1.58;1.48;;;14.40;30.50;;;;;;5132973;27;20247;-67
2021/12/03 15:15:15;;;;;;;1.98;1.75;;;14.40;30.40;;;;;;5133409;27;20201;-67
2021/12/03 15:23:48;;;;;;;1.48;1.35;;;14.40;30.10;;;;;;5131575;27;20245;-67
2021/12/03 15:26:32;;;;;;;1.50;1.40;;;14.40;30.10;;;;;;5132217;27;20288;-66
2021/12/03 15:29:34;;;;;;;1.50;1.40;;;14.40;30.10;;;;;;5132913;27;20235;-67
2021/12/03 15:32:06;;;;;;;1.35;1.25;;;14.40;30.00;;;;;;5132288;27;20584;-67
2021/12/03 15:34:44;;;;;;;1.50;1.30;;;14.40;30.00;;;;;;5132410;27;20228;-67
2021/12/03 15:37:24;;;;;;;1.50;1.40;;;14.30;29.90;;;;;;5132878;27;20668;-67
2021/12/03 15:40:17;;;;;;;1.60;1.50;;;14.40;30.00;;;;;;5132549;27;20267;-67
2021/12/03 15:54:33;;;;;;;1.40;1.30;;;14.30;29.80;;;;;;5131816;28;20285;-66
2021/12/03 15:57:30;;;;;;;1.40;1.30;;;14.30;29.80;;;;;;5131854;27;20198;-66
2021/12/03 16:05:54;;;;;;;1.45;1.35;;;14.20;29.70;;;;;;5131453;28;20291;-67
2021/12/03 16:08:24;;;;;;;1.60;1.38;;;14.20;29.70;;;;;;5132351;27;20203;-67
2021/12/03 16:11:00;;;;;;;1.15;1.05;;;14.20;29.60;;;;;;5131694;27;20202;-67
2021/12/03 16:13:40;;;;;;;1.50;1.40;;;14.20;29.70;;;;;;5131187;27;20210;-67
2021/12/03 16:43:49;;;;;;;3.80;2.25;;;14.00;29.40;;;;;;5117222;28;20198;-67
2021/12/03 16:46:42;;;;;;;2.35;2.00;;;14.00;29.30;;;;;;5117197;28;20226;-67
2021/12/03 16:51:55;;;;;;;3.20;1.85;;;14.00;29.20;;;;;;5116452;28;20497;-67
2021/12/03 16:54:26;;;;;;;2.28;1.85;;;14.00;29.30;;;;;;5116688;28;20898;-67
2021/12/03 16:56:55;;;;;;;2.70;1.88;;;14.00;29.30;;;;;;5116276;28;20531;-67
2021/12/03 16:59:23;;;;;;;249.32;146.95;;;14.00;29.30;;;;;;5109072;28;20195;-67
2021/12/03 17:01:59;;;;;;;188.68;112.65;;;14.00;29.30;;;;;;5099915;28;20192;-67
2021/12/03 17:10:27;;;;;;;135.15;79.28;;;14.00;29.40;;;;;;5110099;28;20610;-67
2021/12/03 17:29:59;;;;;;;157.93;120.25;;;13.90;29.50;;;;;;5114948;28;20202;-67
2021/12/03 17:49:03;;;;;;;99.40;73.97;;;13.90;29.80;;;;;;5080432;28;20194;-66
2021/12/03 17:51:45;;;;;;;95.78;72.00;;;14.00;29.90;;;;;;5114921;28;20202;-67
2021/12/03 17:54:39;;;;;;;90.13;67.95;;;13.90;29.80;;;;;;5114323;28;20727;-66
2021/12/03 17:57:13;;;;;;;88.38;66.35;;;14.00;30.00;;;;;;5115340;28;20234;-66
2021/12/03 17:59:43;;;;;;;80.78;61.92;;;14.00;30.00;;;;;;5115581;28;20208;-67
2021/12/03 18:02:19;;;;;;;81.43;60.33;;;14.00;29.90;;;;;;5115267;28;20203;-67
2021/12/03 18:05:13;;;;;;;73.57;57.65;;;14.00;29.90;;;;;;5114717;28;20788;-67
2021/12/03 18:07:51;;;;;;;74.40;56.78;;;14.00;29.90;;;;;;5115663;28;20289;-67
2021/12/03 18:43:57;;;;;;;50.53;39.42;;;14.00;29.80;;;;;;5115318;28;20214;-66
2021/12/03 18:46:54;;;;;;;45.42;37.35;;;13.90;29.70;;;;;;5115294;28;20636;-66
2021/12/03 18:54:57;;;;;;;51.90;41.10;;;14.00;29.70;;;;;;5107922;28;20300;-64
2021/12/03 18:57:29;;;;;;;47.75;35.45;;;13.90;29.60;;;;;;5095978;28;20306;-65
2021/12/03 18:59:59;;;;;;;44.90;35.13;;;13.90;29.60;;;;;;5104695;28;20203;-65
2021/12/03 19:02:26;;;;;;;44.28;35.60;;;13.90;29.80;;;;;;5110466;28;20497;-65
2021/12/03 19:04:57;;;;;;;44.67;33.63;;;14.00;29.90;;;;;;5114510;28;20239;-65
2021/12/03 19:07:28;;;;;;;43.05;32.20;;;14.00;30.00;;;;;;5115167;28;20705;-65
2021/12/03 19:09:59;;;;;;;38.65;30.38;;;14.00;30.00;;;;;;5116355;28;20203;-65
2021/12/03 19:44:01;;;;;;;23.02;19.15;;;14.00;29.30;;;;;;5798528;22;20226;-65
2021/12/03 19:46:31;;;;;;;23.50;19.42;;;14.00;29.30;;;;;;5115832;28;20703;-64
2021/12/03 19:49:06;;;;;;;22.15;18.25;;;14.00;29.30;;;;;;5116131;28;20211;-64
2021/12/03 19:51:40;;;;;;;23.27;18.52;;;14.00;29.50;;;;;;5116794;28;20203;-64
2021/12/03 19:54:07;;;;;;;23.80;17.70;;;13.90;29.40;;;;;;5119393;28;20297;-66
2021/12/03 19:56:36;;;;;;;22.80;17.38;;;13.90;29.70;;;;;;5117860;28;20203;-66
2021/12/03 19:59:05;;;;;;;24.10;16.70;;;14.00;29.90;;;;;;5098824;28;20291;-67
2021/12/03 20:01:34;;;;;;;22.00;16.17;;;14.00;30.00;;;;;;5098995;28;20210;-66
2021/12/03 20:04:01;;;;;;;20.60;15.57;;;14.00;30.00;;;;;;5098835;28;20215;-66
2021/12/03 20:06:29;;;;;;;19.15;14.63;;;14.00;30.80;;;;;;5099263;28;20223;-66